createdAt,value
2018-06-17T00:01:07.650Z,47.77
2018-06-17T00:03:34.285Z,47.75
2018-06-17T00:06:00.960Z,47.72
2018-06-17T00:08:27.566Z,47.74
2018-06-17T00:10:54.200Z,47.77
2018-06-17T00:13:20.857Z,47.75
2018-06-17T00:15:47.495Z,47.73
2018-06-17T00:18:14.138Z,47.72
2018-06-17T00:20:40.873Z,47.61
2018-06-17T00:23:07.510Z,47.64
2018-06-17T00:25:34.163Z,47.71
2018-06-17T00:28:00.812Z,47.64
2018-06-17T00:30:27.453Z,47.68
2018-06-17T00:32:54.093Z,47.58
2018-06-17T00:35:20.727Z,47.55
2018-06-17T00:37:47.370Z,47.60
2018-06-17T00:40:14.003Z,47.60
2018-06-17T00:42:40.642Z,47.60
2018-06-17T00:45:07.281Z,47.59
2018-06-17T00:47:33.924Z,47.58
2018-06-17T00:50:00.561Z,47.55
2018-06-17T00:52:27.207Z,47.51
2018-06-17T00:54:55.081Z,47.50
2018-06-17T00:57:20.496Z,47.54
2018-06-17T00:59:47.172Z,47.51
2018-06-17T01:02:13.818Z,47.61
2018-06-17T01:04:40.464Z,47.51
2018-06-17T01:07:07.117Z,47.56
2018-06-17T01:09:33.758Z,47.51
2018-06-17T01:12:00.394Z,47.48
2018-06-17T01:14:27.030Z,47.57
2018-06-17T01:16:53.691Z,47.52
2018-06-17T01:19:20.328Z,47.53
2018-06-17T01:21:46.978Z,47.53
2018-06-17T01:24:13.613Z,47.57
2018-06-17T01:26:40.249Z,47.52
2018-06-17T01:29:06.902Z,47.53
2018-06-17T01:31:33.548Z,47.53
2018-06-17T01:34:00.185Z,47.47
2018-06-17T01:36:26.836Z,47.45
2018-06-17T01:38:53.475Z,47.48
2018-06-17T01:41:20.122Z,47.52
2018-06-17T01:43:46.862Z,47.55
2018-06-17T01:46:13.552Z,47.47
2018-06-17T01:48:40.164Z,47.44
2018-06-17T01:51:06.816Z,47.53
2018-06-17T01:53:33.458Z,47.42
2018-06-17T01:56:00.094Z,47.42
2018-06-17T01:58:26.749Z,47.50
2018-06-17T02:00:53.389Z,47.54
2018-06-17T02:03:20.036Z,47.37
2018-06-17T02:05:46.675Z,47.43
2018-06-17T02:08:13.358Z,47.45
2018-06-17T02:10:40.004Z,47.49
2018-06-17T02:13:06.642Z,47.46
2018-06-17T02:15:33.278Z,47.45
2018-06-17T02:17:59.966Z,47.42
2018-06-17T02:20:26.602Z,47.49
2018-06-17T02:22:53.240Z,47.50
2018-06-17T02:25:19.891Z,47.46
2018-06-17T02:27:46.532Z,47.51
2018-06-17T02:30:13.203Z,47.42
2018-06-17T02:32:39.838Z,47.48
2018-06-17T02:35:06.487Z,47.51
2018-06-17T02:37:33.123Z,47.45
2018-06-17T02:39:59.820Z,47.43
2018-06-17T02:42:26.474Z,47.40
2018-06-17T02:44:53.123Z,47.39
2018-06-17T02:47:19.768Z,47.40
2018-06-17T02:49:46.404Z,47.27
2018-06-17T02:52:13.085Z,47.43
2018-06-17T02:54:39.721Z,47.42
2018-06-17T02:57:06.382Z,47.33
2018-06-17T02:59:33.031Z,47.31
2018-06-17T03:01:59.679Z,47.45
2018-06-17T03:04:26.309Z,47.32
2018-06-17T03:06:52.968Z,47.34
2018-06-17T03:09:19.598Z,47.51
2018-06-17T03:11:46.282Z,47.36
2018-06-17T03:14:12.921Z,47.45
2018-06-17T03:16:39.566Z,47.49
2018-06-17T03:19:06.256Z,47.50
2018-06-17T03:21:35.231Z,47.48
2018-06-17T03:24:01.866Z,47.54
2018-06-17T03:26:28.502Z,47.53
2018-06-17T03:28:55.176Z,47.50
2018-06-17T03:31:21.810Z,47.52
2018-06-17T03:33:48.452Z,47.40
2018-06-17T03:36:15.110Z,47.49
2018-06-17T03:38:41.747Z,47.56
2018-06-17T03:41:08.418Z,47.49
2018-06-17T03:43:35.058Z,47.77
2018-06-17T03:46:01.709Z,47.65
2018-06-17T03:48:28.364Z,47.62
2018-06-17T03:50:55.032Z,47.66
2018-06-17T03:53:21.689Z,47.65
2018-06-17T03:55:48.327Z,47.59
2018-06-17T03:58:15.007Z,47.64
2018-06-17T04:00:41.649Z,47.58
2018-06-17T04:03:08.390Z,47.74
2018-06-17T04:05:35.102Z,47.48
2018-06-17T04:08:01.742Z,47.65
2018-06-17T04:10:29.771Z,47.59
2018-06-17T04:12:55.076Z,47.57
2018-06-17T04:15:21.717Z,47.50
2018-06-17T04:17:48.398Z,47.55
2018-06-17T04:20:15.035Z,47.68
2018-06-17T04:22:41.739Z,47.52
2018-06-17T04:25:08.381Z,47.79
2018-06-17T04:27:35.012Z,48.09
2018-06-17T04:30:01.664Z,47.68
2018-06-17T04:32:28.300Z,47.76
2018-06-17T04:34:54.947Z,48.08
2018-06-17T04:37:21.598Z,48.06
2018-06-17T04:39:48.251Z,48.06
2018-06-17T04:42:14.899Z,48.10
2018-06-17T04:44:41.546Z,48.05
2018-06-17T04:47:08.193Z,48.16
2018-06-17T04:49:34.841Z,47.92
2018-06-17T04:52:01.514Z,48.17
2018-06-17T04:54:28.159Z,48.21
2018-06-17T04:56:54.798Z,48.34
2018-06-17T04:59:21.436Z,48.18
2018-06-17T05:01:48.139Z,48.35
2018-06-17T05:04:14.790Z,48.05
2018-06-17T05:06:43.590Z,47.92
2018-06-17T05:09:08.105Z,48.04
2018-06-17T05:11:34.748Z,47.76
2018-06-17T05:14:01.408Z,47.65
2018-06-17T05:16:28.056Z,47.51
2018-06-17T05:18:54.689Z,47.56
2018-06-17T05:21:21.336Z,47.46
2018-06-17T05:23:48.021Z,47.53
2018-06-17T05:26:14.669Z,47.45
2018-06-17T05:28:41.306Z,47.39
2018-06-17T05:31:07.983Z,47.43
2018-06-17T05:33:34.623Z,47.50
2018-06-17T05:36:01.299Z,47.42
2018-06-17T05:38:27.912Z,47.35
2018-06-17T05:40:54.554Z,47.44
2018-06-17T05:43:21.198Z,47.56
2018-06-17T05:45:47.881Z,47.47
2018-06-17T05:48:14.521Z,47.54
2018-06-17T05:50:41.157Z,47.53
2018-06-17T05:53:07.801Z,47.67
2018-06-17T05:55:34.484Z,47.67
2018-06-17T05:58:01.081Z,47.80
2018-06-17T06:00:27.723Z,47.69
2018-06-17T06:02:54.372Z,47.90
2018-06-17T06:05:21.013Z,47.94
2018-06-17T06:07:47.812Z,47.98
2018-06-17T06:10:14.472Z,47.97
2018-06-17T06:12:41.104Z,47.99
2018-06-17T06:15:07.748Z,48.07
2018-06-17T06:17:34.486Z,48.11
2018-06-17T06:20:01.120Z,47.88
2018-06-17T06:22:27.772Z,47.81
2018-06-17T06:24:55.937Z,47.79
2018-06-17T06:27:21.090Z,47.79
2018-06-17T06:29:47.728Z,47.96
2018-06-17T06:32:14.366Z,47.87
2018-06-17T06:34:41.019Z,47.87
2018-06-17T06:37:07.663Z,47.90
2018-06-17T06:39:34.342Z,47.95
2018-06-17T06:42:00.983Z,48.02
2018-06-17T06:44:27.640Z,48.04
2018-06-17T06:46:54.379Z,47.91
2018-06-17T06:49:21.026Z,48.09
2018-06-17T06:51:47.672Z,48.07
2018-06-17T06:54:14.365Z,48.05
2018-06-17T06:56:41.002Z,48.17
2018-06-17T06:59:07.643Z,48.00
2018-06-17T07:01:34.335Z,47.85
2018-06-17T07:04:00.936Z,47.94
2018-06-17T07:06:27.590Z,47.85
2018-06-17T07:08:54.226Z,47.68
2018-06-17T07:11:20.883Z,47.67
2018-06-17T07:13:47.518Z,47.71
2018-06-17T07:16:14.212Z,47.48
2018-06-17T07:18:40.856Z,47.74
2018-06-17T07:21:07.568Z,47.45
2018-06-17T07:23:34.223Z,47.38
2018-06-17T07:26:03.035Z,47.33
2018-06-17T07:28:29.680Z,47.27
2018-06-17T07:30:56.319Z,47.39
2018-06-17T07:33:22.963Z,47.28
2018-06-17T07:35:49.686Z,47.31
2018-06-17T07:38:16.286Z,47.24
2018-06-17T07:40:42.974Z,47.14
2018-06-17T07:43:09.620Z,47.15
2018-06-17T07:45:36.258Z,47.24
2018-06-17T07:48:02.901Z,47.14
2018-06-17T07:50:29.547Z,47.00
2018-06-17T07:52:56.233Z,46.93
2018-06-17T07:55:22.864Z,47.05
2018-06-17T07:57:49.510Z,47.10
2018-06-17T08:00:16.205Z,46.96
2018-06-17T08:02:42.902Z,47.15
2018-06-17T08:05:09.538Z,46.95
2018-06-17T08:07:36.192Z,47.07
2018-06-17T08:10:02.838Z,47.12
2018-06-17T08:12:29.473Z,47.05
2018-06-17T08:14:56.109Z,47.01
2018-06-17T08:17:22.747Z,47.00
2018-06-17T08:19:49.429Z,46.82
2018-06-17T08:22:16.127Z,47.10
2018-06-17T08:24:42.805Z,46.95
2018-06-17T08:27:09.437Z,46.86
2018-06-17T08:29:36.082Z,46.67
2018-06-17T08:32:02.733Z,46.79
2018-06-17T08:34:29.400Z,46.64
2018-06-17T08:36:56.046Z,47.00
2018-06-17T08:39:22.685Z,47.03
2018-06-17T08:41:49.319Z,46.91
2018-06-17T08:44:15.982Z,46.71
2018-06-17T08:46:42.644Z,46.64
2018-06-17T08:49:09.311Z,46.67
2018-06-17T08:51:35.952Z,46.71
2018-06-17T08:54:02.585Z,46.93
2018-06-17T08:56:29.236Z,46.68
2018-06-17T08:58:55.876Z,46.55
2018-06-17T09:01:22.521Z,46.42
2018-06-17T09:03:49.184Z,46.41
2018-06-17T09:06:15.821Z,46.37
2018-06-17T09:08:42.470Z,46.34
2018-06-17T09:11:09.107Z,46.37
2018-06-17T09:13:35.758Z,46.66
2018-06-17T09:16:02.399Z,46.48
2018-06-17T09:18:29.047Z,46.47
2018-06-17T09:20:55.685Z,46.39
2018-06-17T09:23:22.365Z,46.35
2018-06-17T09:25:49.009Z,46.35
2018-06-17T09:28:15.694Z,46.30
2018-06-17T09:30:42.379Z,46.30
2018-06-17T09:33:09.018Z,46.34
2018-06-17T09:35:35.698Z,46.64
2018-06-17T09:38:02.385Z,46.51
2018-06-17T09:40:29.024Z,46.39
2018-06-17T09:42:55.664Z,46.42
2018-06-17T09:45:22.307Z,46.37
2018-06-17T09:47:49.002Z,46.39
2018-06-17T09:50:15.637Z,46.35
2018-06-17T09:52:42.280Z,46.33
2018-06-17T09:55:08.932Z,46.33
2018-06-17T09:57:35.573Z,46.38
2018-06-17T10:00:02.369Z,46.56
2018-06-17T10:02:29.007Z,46.50
2018-06-17T10:04:55.703Z,46.37
2018-06-17T10:07:22.349Z,46.37
2018-06-17T10:09:48.985Z,46.22
2018-06-17T10:12:15.630Z,46.29
2018-06-17T10:14:42.317Z,46.16
2018-06-17T10:17:08.962Z,46.02
2018-06-17T10:19:35.597Z,46.02
2018-06-17T10:22:02.251Z,46.15
2018-06-17T10:24:28.952Z,46.13
2018-06-17T10:26:55.610Z,45.88
2018-06-17T10:29:22.318Z,45.67
2018-06-17T10:31:48.927Z,45.50
2018-06-17T10:34:15.608Z,45.37
2018-06-17T10:36:42.250Z,45.24
2018-06-17T10:39:08.902Z,45.08
2018-06-17T10:41:35.549Z,45.00
2018-06-17T10:44:02.253Z,45.20
2018-06-17T10:46:28.921Z,45.20
2018-06-17T10:48:55.641Z,44.93
2018-06-17T10:51:22.240Z,44.77
2018-06-17T10:53:48.925Z,44.54
2018-06-17T10:56:15.640Z,44.53
2018-06-17T10:58:42.205Z,44.44
2018-06-17T11:01:08.885Z,44.32
2018-06-17T11:03:35.516Z,44.25
2018-06-17T11:06:02.157Z,44.64
2018-06-17T11:08:28.802Z,44.55
2018-06-17T11:10:55.463Z,44.48
2018-06-17T11:13:22.132Z,44.45
2018-06-17T11:15:48.741Z,44.46
2018-06-17T11:18:15.415Z,44.42
2018-06-17T11:20:42.085Z,44.42
2018-06-17T11:23:08.727Z,44.42
2018-06-17T11:25:35.420Z,44.29
2018-06-17T11:28:02.058Z,44.60
2018-06-17T11:30:28.737Z,44.67
2018-06-17T11:32:55.373Z,44.50
2018-06-17T11:35:22.013Z,44.33
2018-06-17T11:37:48.673Z,44.26
2018-06-17T11:40:15.385Z,44.26
2018-06-17T11:42:42.422Z,44.18
2018-06-17T11:45:09.089Z,44.15
2018-06-17T11:47:35.693Z,44.02
2018-06-17T11:50:02.337Z,44.37
2018-06-17T11:52:29.015Z,44.28
2018-06-17T11:54:55.657Z,44.24
2018-06-17T11:57:22.298Z,44.16
2018-06-17T11:59:49.003Z,44.09
2018-06-17T12:02:15.602Z,44.12
2018-06-17T12:04:42.282Z,44.31
2018-06-17T12:07:08.920Z,44.34
2018-06-17T12:09:35.605Z,44.33
2018-06-17T12:12:02.240Z,44.79
2018-06-17T12:14:28.929Z,44.92
2018-06-17T12:16:55.578Z,44.81
2018-06-17T12:19:22.269Z,44.78
2018-06-17T12:21:48.904Z,44.73
2018-06-17T12:24:15.587Z,44.73
2018-06-17T12:26:42.269Z,44.85
2018-06-17T12:29:09.002Z,44.90
2018-06-17T12:31:35.606Z,45.08
2018-06-17T12:34:02.293Z,45.49
2018-06-17T12:36:28.933Z,45.66
2018-06-17T12:38:55.573Z,45.63
2018-06-17T12:41:22.259Z,45.75
2018-06-17T12:43:48.923Z,45.72
2018-06-17T12:46:15.637Z,45.88
2018-06-17T12:48:42.284Z,45.83
2018-06-17T12:51:08.925Z,45.99
2018-06-17T12:53:35.604Z,46.18
2018-06-17T12:56:02.228Z,46.60
2018-06-17T12:58:28.919Z,46.95
2018-06-17T13:00:55.559Z,46.82
2018-06-17T13:03:22.198Z,46.73
2018-06-17T13:05:48.923Z,46.72
2018-06-17T13:08:15.535Z,46.69
2018-06-17T13:10:42.192Z,46.65
2018-06-17T13:13:08.875Z,46.62
2018-06-17T13:15:35.582Z,46.48
2018-06-17T13:18:02.225Z,46.51
2018-06-17T13:20:28.911Z,46.94
2018-06-17T13:22:55.553Z,46.83
2018-06-17T13:25:22.226Z,46.58
2018-06-17T13:27:48.875Z,46.46
2018-06-17T13:30:15.561Z,46.57
2018-06-17T13:32:42.205Z,46.52
2018-06-17T13:35:08.848Z,46.48
2018-06-17T13:37:35.566Z,46.38
2018-06-17T13:40:02.287Z,46.31
2018-06-17T13:42:28.934Z,46.31
2018-06-17T13:44:55.585Z,46.40
2018-06-17T13:47:22.520Z,46.64
2018-06-17T13:49:49.176Z,46.46
2018-06-17T13:52:15.821Z,46.26
2018-06-17T13:54:43.781Z,46.20
2018-06-17T13:57:09.136Z,46.06
2018-06-17T13:59:35.955Z,46.01
2018-06-17T14:02:02.592Z,46.00
2018-06-17T14:04:29.205Z,45.93
2018-06-17T14:06:55.892Z,45.83
2018-06-17T14:09:22.569Z,45.75
2018-06-17T14:11:49.202Z,45.75
2018-06-17T14:14:15.845Z,46.11
2018-06-17T14:16:42.533Z,46.03
2018-06-17T14:19:09.174Z,45.97
2018-06-17T14:21:35.809Z,45.79
2018-06-17T14:24:02.456Z,45.94
2018-06-17T14:26:29.095Z,45.80
2018-06-17T14:28:55.765Z,45.63
2018-06-17T14:31:22.485Z,45.80
2018-06-17T14:33:49.046Z,45.83
2018-06-17T14:36:15.686Z,45.76
2018-06-17T14:38:42.325Z,45.63
2018-06-17T14:41:09.010Z,45.86
2018-06-17T14:43:35.650Z,45.80
2018-06-17T14:46:02.393Z,45.76
2018-06-17T14:48:29.036Z,45.81
2018-06-17T14:50:55.679Z,45.96
2018-06-17T14:53:22.347Z,45.79
2018-06-17T14:55:48.993Z,45.77
2018-06-17T14:58:15.630Z,45.83
2018-06-17T15:00:42.325Z,46.03
2018-06-17T15:03:09.001Z,46.30
2018-06-17T15:05:35.642Z,46.08
2018-06-17T15:08:02.326Z,46.41
2018-06-17T15:10:29.026Z,46.83
2018-06-17T15:12:55.658Z,46.68
2018-06-17T15:15:22.302Z,46.81
2018-06-17T15:17:48.934Z,47.11
2018-06-17T15:20:15.581Z,47.10
2018-06-17T15:22:42.256Z,47.28
2018-06-17T15:25:08.853Z,47.48
2018-06-17T15:27:35.529Z,47.61
2018-06-17T15:30:02.133Z,47.87
2018-06-17T15:32:28.773Z,47.93
2018-06-17T15:34:55.417Z,48.23
2018-06-17T15:37:22.049Z,48.45
2018-06-17T15:39:48.730Z,48.67
2018-06-17T15:42:15.371Z,48.57
2018-06-17T15:44:42.058Z,48.57
2018-06-17T15:47:08.694Z,48.70
2018-06-17T15:49:35.417Z,48.98
2018-06-17T15:52:02.063Z,49.19
2018-06-17T15:54:28.749Z,49.33
2018-06-17T15:56:55.386Z,49.39
2018-06-17T15:59:22.077Z,49.60
2018-06-17T16:01:48.762Z,49.69
2018-06-17T16:04:15.471Z,49.86
2018-06-17T16:06:42.050Z,49.93
2018-06-17T16:09:08.747Z,49.81
2018-06-17T16:11:35.385Z,49.98
2018-06-17T16:14:02.023Z,50.07
2018-06-17T16:16:28.713Z,50.32
2018-06-17T16:18:55.351Z,50.31
2018-06-17T16:21:21.998Z,50.39
2018-06-17T16:23:52.029Z,50.51
2018-06-17T16:26:18.724Z,50.53
2018-06-17T16:28:45.402Z,50.57
2018-06-17T16:31:12.009Z,50.67
2018-06-17T16:33:38.749Z,50.86
2018-06-17T16:36:05.434Z,50.76
2018-06-17T16:38:32.124Z,50.76
2018-06-17T16:40:58.810Z,50.80
2018-06-17T16:43:25.505Z,50.91
2018-06-17T16:45:52.180Z,50.96
2018-06-17T16:48:18.817Z,50.90
2018-06-17T16:50:45.518Z,51.01
2018-06-17T16:53:12.159Z,51.00
2018-06-17T16:55:38.801Z,50.89
2018-06-17T16:58:05.484Z,50.86
2018-06-17T17:00:32.125Z,50.92
2018-06-17T17:02:58.757Z,50.98
2018-06-17T17:05:25.447Z,51.04
2018-06-17T17:07:52.137Z,51.02
2018-06-17T17:10:18.775Z,50.83
2018-06-17T17:12:45.412Z,50.89
2018-06-17T17:15:12.085Z,50.85
2018-06-17T17:17:38.725Z,51.10
2018-06-17T17:20:05.405Z,51.07
2018-06-17T17:22:32.050Z,51.22
2018-06-17T17:24:58.690Z,51.15
2018-06-17T17:27:25.327Z,51.32
2018-06-17T17:29:52.088Z,51.33
2018-06-17T17:32:18.766Z,51.63
2018-06-17T17:34:45.403Z,51.47
2018-06-17T17:37:12.084Z,51.57
2018-06-17T17:39:38.802Z,51.59
2018-06-17T17:42:05.451Z,52.07
2018-06-17T17:44:32.147Z,51.85
2018-06-17T17:46:58.832Z,52.05
2018-06-17T17:49:25.497Z,51.95
2018-06-17T17:51:52.200Z,52.33
2018-06-17T17:54:18.896Z,52.09
2018-06-17T17:56:45.524Z,52.27
2018-06-17T17:59:12.189Z,52.02
2018-06-17T18:01:38.843Z,52.33
2018-06-17T18:04:05.521Z,52.08
2018-06-17T18:06:32.155Z,52.10
2018-06-17T18:08:58.863Z,52.34
2018-06-17T18:11:25.505Z,52.41
2018-06-17T18:13:52.203Z,52.51
2018-06-17T18:16:18.842Z,52.37
2018-06-17T18:18:45.478Z,52.57
2018-06-17T18:21:12.169Z,52.53
2018-06-17T18:23:38.854Z,52.67
2018-06-17T18:26:05.525Z,52.51
2018-06-17T18:28:32.172Z,52.46
2018-06-17T18:31:00.212Z,52.48
2018-06-17T18:33:25.450Z,52.35
2018-06-17T18:35:52.147Z,52.46
2018-06-17T18:38:18.783Z,52.48
2018-06-17T18:40:45.420Z,52.57
2018-06-17T18:43:12.064Z,52.57
2018-06-17T18:45:38.695Z,52.54
2018-06-17T18:48:05.378Z,52.62
2018-06-17T18:50:32.010Z,52.66
2018-06-17T18:52:58.694Z,52.52
2018-06-17T18:55:25.375Z,52.59
2018-06-17T18:57:52.156Z,52.68
2018-06-17T19:00:18.791Z,52.52
2018-06-17T19:02:45.479Z,52.54
2018-06-17T19:05:12.119Z,52.64
2018-06-17T19:07:38.755Z,52.56
2018-06-17T19:10:05.397Z,52.56
2018-06-17T19:12:32.074Z,52.64
2018-06-17T19:14:58.710Z,52.67
2018-06-17T19:17:25.379Z,52.61
2018-06-17T19:19:51.994Z,52.57
2018-06-17T19:22:18.698Z,52.74
2018-06-17T19:24:45.349Z,52.65
2018-06-17T19:27:11.977Z,52.73
2018-06-17T19:29:38.657Z,52.77
2018-06-17T19:32:05.322Z,52.83
2018-06-17T19:34:32.002Z,52.75
2018-06-17T19:36:58.636Z,52.82
2018-06-17T19:39:25.334Z,52.72
2018-06-17T19:41:51.972Z,52.80
2018-06-17T19:44:18.657Z,52.66
2018-06-17T19:46:45.293Z,52.75
2018-06-17T19:49:11.950Z,52.74
2018-06-17T19:51:38.654Z,52.91
2018-06-17T19:54:05.260Z,52.79
2018-06-17T19:56:31.902Z,52.83
2018-06-17T19:58:58.550Z,52.84
2018-06-17T20:01:25.223Z,52.97
2018-06-17T20:03:51.862Z,52.83
2018-06-17T20:06:18.548Z,52.84
2018-06-17T20:08:45.150Z,52.83
2018-06-17T20:11:11.858Z,52.76
2018-06-17T20:13:38.527Z,52.72
2018-06-17T20:16:05.127Z,52.77
2018-06-17T20:18:31.839Z,52.67
2018-06-17T20:20:58.490Z,52.70
2018-06-17T20:23:25.128Z,52.67
2018-06-17T20:25:51.785Z,52.68
2018-06-17T20:28:18.420Z,52.68
2018-06-17T20:30:45.069Z,52.66
2018-06-17T20:33:11.708Z,52.58
2018-06-17T20:35:38.348Z,52.64
2018-06-17T20:38:05.001Z,52.63
2018-06-17T20:40:31.635Z,52.58
2018-06-17T20:42:58.281Z,52.67
2018-06-17T20:45:24.914Z,52.64
2018-06-17T20:47:51.574Z,52.61
2018-06-17T20:50:18.240Z,52.67
2018-06-17T20:52:44.865Z,52.66
2018-06-17T20:55:11.503Z,52.65
2018-06-17T20:57:38.152Z,52.64
2018-06-17T21:00:04.838Z,52.53
2018-06-17T21:02:31.474Z,52.57
2018-06-17T21:04:58.114Z,52.52
2018-06-17T21:07:24.829Z,52.55
2018-06-17T21:09:51.473Z,52.51
2018-06-17T21:12:18.116Z,52.56
2018-06-17T21:14:44.753Z,52.48
2018-06-17T21:17:11.444Z,52.41
2018-06-17T21:19:38.061Z,52.45
2018-06-17T21:22:04.709Z,52.40
2018-06-17T21:24:31.339Z,52.35
2018-06-17T21:26:57.987Z,52.32
2018-06-17T21:29:24.654Z,52.34
2018-06-17T21:31:51.254Z,52.32
2018-06-17T21:34:17.897Z,52.30
2018-06-17T21:36:44.535Z,52.30
2018-06-17T21:39:11.179Z,52.23
2018-06-17T21:41:37.819Z,52.20
2018-06-17T21:44:04.465Z,52.19
2018-06-17T21:46:31.098Z,52.08
2018-06-17T21:48:57.733Z,52.15
2018-06-17T21:51:24.377Z,52.11
2018-06-17T21:53:51.020Z,52.10
2018-06-17T21:56:17.649Z,52.07
2018-06-17T21:58:44.294Z,52.02
2018-06-17T22:01:10.929Z,52.04
2018-06-17T22:03:37.568Z,52.09
2018-06-17T22:06:04.224Z,52.05
2018-06-17T22:08:30.964Z,52.07
2018-06-17T22:10:57.602Z,51.94
2018-06-17T22:13:24.253Z,51.94
2018-06-17T22:15:50.888Z,51.92
2018-06-17T22:18:17.534Z,51.91
2018-06-17T22:20:44.180Z,51.92
2018-06-17T22:23:10.819Z,51.82
2018-06-17T22:25:37.462Z,51.76
2018-06-17T22:28:04.203Z,51.78
2018-06-17T22:30:30.853Z,51.74
2018-06-17T22:32:57.520Z,51.70
2018-06-17T22:35:24.161Z,51.63
2018-06-17T22:37:50.815Z,51.55
2018-06-17T22:40:17.453Z,51.64
2018-06-17T22:42:44.093Z,51.57
2018-06-17T22:45:10.730Z,51.58
2018-06-17T22:47:37.366Z,51.57
2018-06-17T22:50:04.006Z,51.51
2018-06-17T22:52:30.648Z,51.48
2018-06-17T22:54:57.285Z,51.46
2018-06-17T22:57:23.922Z,51.40
2018-06-17T22:59:50.566Z,51.30
2018-06-17T23:02:17.200Z,51.32
2018-06-17T23:04:43.829Z,51.37
2018-06-17T23:07:10.485Z,51.36
2018-06-17T23:09:37.131Z,51.41
2018-06-17T23:12:03.772Z,51.38
2018-06-17T23:14:30.413Z,51.33
2018-06-17T23:16:57.054Z,51.30
2018-06-17T23:19:23.698Z,51.35
2018-06-17T23:21:50.330Z,51.27
2018-06-17T23:24:16.965Z,51.25
2018-06-17T23:26:43.613Z,51.25
2018-06-17T23:29:10.242Z,51.23
2018-06-17T23:31:36.885Z,51.31
2018-06-17T23:34:03.522Z,51.27
2018-06-17T23:36:30.157Z,51.14
2018-06-17T23:38:56.838Z,51.20
2018-06-17T23:41:23.441Z,51.27
2018-06-17T23:43:50.083Z,51.18
2018-06-17T23:46:16.725Z,51.28
2018-06-17T23:48:43.368Z,51.23
2018-06-17T23:51:10.009Z,51.27
2018-06-17T23:53:36.650Z,51.24
2018-06-17T23:56:03.293Z,51.23
2018-06-17T23:58:29.926Z,51.18
